sensor_id;sensor_type;location;lat;lon;timestamp;P1;durP1;ratioP1;P2;durP2;ratioP2
8213;SDS011;4148;47.974;7.824;2023-05-07T00:00:46;5.37;;;2.90;;
8213;SDS011;4148;47.974;7.824;2023-05-07T00:03:14;4.13;;;3.13;;
8213;SDS011;4148;47.974;7.824;2023-05-07T00:05:42;7.27;;;3.03;;
8213;SDS011;4148;47.974;7.824;2023-05-07T00:08:10;5.90;;;4.03;;
8213;SDS011;4148;47.974;7.824;2023-05-07T00:10:38;5.57;;;3.50;;
8213;SDS011;4148;47.974;7.824;2023-05-07T00:13:07;7.37;;;3.33;;
8213;SDS011;4148;47.974;7.824;2023-05-07T00:15:35;3.67;;;3.17;;
8213;SDS011;4148;47.974;7.824;2023-05-07T00:18:03;5.30;;;3.80;;
8213;SDS011;4148;47.974;7.824;2023-05-07T00:20:31;4.13;;;3.27;;
8213;SDS011;4148;47.974;7.824;2023-05-07T00:23:01;4.90;;;3.35;;
8213;SDS011;4148;47.974;7.824;2023-05-07T00:25:29;11.27;;;3.17;;
8213;SDS011;4148;47.974;7.824;2023-05-07T00:27:57;4.77;;;3.27;;
8213;SDS011;4148;47.974;7.824;2023-05-07T00:30:31;4.37;;;3.17;;
8213;SDS011;4148;47.974;7.824;2023-05-07T00:32:59;5.20;;;3.23;;
8213;SDS011;4148;47.974;7.824;2023-05-07T00:35:27;5.10;;;3.20;;
8213;SDS011;4148;47.974;7.824;2023-05-07T00:37:55;4.63;;;3.37;;
8213;SDS011;4148;47.974;7.824;2023-05-07T00:40:23;5.13;;;3.30;;
8213;SDS011;4148;47.974;7.824;2023-05-07T00:42:51;5.30;;;3.33;;
8213;SDS011;4148;47.974;7.824;2023-05-07T00:45:25;3.43;;;3.13;;
8213;SDS011;4148;47.974;7.824;2023-05-07T00:47:55;5.67;;;3.50;;
8213;SDS011;4148;47.974;7.824;2023-05-07T00:50:26;3.73;;;3.17;;
8213;SDS011;4148;47.974;7.824;2023-05-07T00:52:55;4.20;;;3.17;;
8213;SDS011;4148;47.974;7.824;2023-05-07T00:55:23;3.67;;;3.27;;
8213;SDS011;4148;47.974;7.824;2023-05-07T00:57:51;5.47;;;3.00;;
8213;SDS011;4148;47.974;7.824;2023-05-07T01:00:19;4.50;;;3.43;;
8213;SDS011;4148;47.974;7.824;2023-05-07T01:02:47;3.70;;;3.10;;
8213;SDS011;4148;47.974;7.824;2023-05-07T01:05:17;3.80;;;3.50;;
8213;SDS011;4148;47.974;7.824;2023-05-07T01:07:46;4.83;;;3.00;;
8213;SDS011;4148;47.974;7.824;2023-05-07T01:10:15;4.70;;;2.93;;
8213;SDS011;4148;47.974;7.824;2023-05-07T01:12:44;6.67;;;3.40;;
8213;SDS011;4148;47.974;7.824;2023-05-07T01:15:13;6.33;;;3.57;;
8213;SDS011;4148;47.974;7.824;2023-05-07T01:17:42;7.37;;;3.10;;
8213;SDS011;4148;47.974;7.824;2023-05-07T01:20:10;7.73;;;3.53;;
8213;SDS011;4148;47.974;7.824;2023-05-07T01:22:40;4.93;;;3.27;;
8213;SDS011;4148;47.974;7.824;2023-05-07T01:25:10;4.87;;;3.50;;
8213;SDS011;4148;47.974;7.824;2023-05-07T01:27:37;4.23;;;3.40;;
8213;SDS011;4148;47.974;7.824;2023-05-07T01:30:06;3.50;;;3.20;;
8213;SDS011;4148;47.974;7.824;2023-05-07T01:32:35;7.53;;;3.30;;
8213;SDS011;4148;47.974;7.824;2023-05-07T01:35:10;3.73;;;3.10;;
8213;SDS011;4148;47.974;7.824;2023-05-07T01:37:40;5.00;;;3.13;;
8213;SDS011;4148;47.974;7.824;2023-05-07T01:40:08;4.70;;;3.27;;
8213;SDS011;4148;47.974;7.824;2023-05-07T01:42:37;5.00;;;3.10;;
8213;SDS011;4148;47.974;7.824;2023-05-07T01:45:06;5.43;;;3.10;;
8213;SDS011;4148;47.974;7.824;2023-05-07T01:47:34;5.53;;;2.97;;
8213;SDS011;4148;47.974;7.824;2023-05-07T01:50:04;3.83;;;3.00;;
8213;SDS011;4148;47.974;7.824;2023-05-07T01:52:35;6.47;;;3.27;;
8213;SDS011;4148;47.974;7.824;2023-05-07T01:55:06;3.93;;;3.00;;
8213;SDS011;4148;47.974;7.824;2023-05-07T01:57:34;3.67;;;2.93;;
8213;SDS011;4148;47.974;7.824;2023-05-07T02:00:02;4.03;;;3.57;;
8213;SDS011;4148;47.974;7.824;2023-05-07T02:02:31;5.80;;;3.00;;
8213;SDS011;4148;47.974;7.824;2023-05-07T02:04:59;4.37;;;3.10;;
8213;SDS011;4148;47.974;7.824;2023-05-07T02:07:27;4.53;;;3.27;;
8213;SDS011;4148;47.974;7.824;2023-05-07T02:09:55;6.03;;;3.50;;
8213;SDS011;4148;47.974;7.824;2023-05-07T02:12:25;5.40;;;3.27;;
8213;SDS011;4148;47.974;7.824;2023-05-07T02:14:52;4.73;;;3.23;;
8213;SDS011;4148;47.974;7.824;2023-05-07T02:17:20;3.97;;;3.10;;
8213;SDS011;4148;47.974;7.824;2023-05-07T02:19:48;6.23;;;3.40;;
8213;SDS011;4148;47.974;7.824;2023-05-07T02:22:16;3.87;;;3.03;;
8213;SDS011;4148;47.974;7.824;2023-05-07T02:24:44;3.17;;;2.87;;
8213;SDS011;4148;47.974;7.824;2023-05-07T02:27:12;4.50;;;3.33;;
8213;SDS011;4148;47.974;7.824;2023-05-07T02:29:41;4.33;;;3.93;;
8213;SDS011;4148;47.974;7.824;2023-05-07T02:32:08;3.30;;;3.00;;
8213;SDS011;4148;47.974;7.824;2023-05-07T02:34:36;5.40;;;3.00;;
8213;SDS011;4148;47.974;7.824;2023-05-07T02:37:04;3.67;;;3.07;;
8213;SDS011;4148;47.974;7.824;2023-05-07T02:39:33;3.50;;;3.20;;
8213;SDS011;4148;47.974;7.824;2023-05-07T02:42:01;5.73;;;3.40;;
8213;SDS011;4148;47.974;7.824;2023-05-07T02:44:29;4.80;;;3.20;;
8213;SDS011;4148;47.974;7.824;2023-05-07T02:46:59;3.80;;;2.73;;
8213;SDS011;4148;47.974;7.824;2023-05-07T02:49:26;4.87;;;3.10;;
8213;SDS011;4148;47.974;7.824;2023-05-07T02:51:54;4.63;;;2.73;;
8213;SDS011;4148;47.974;7.824;2023-05-07T02:54:22;4.27;;;2.70;;
8213;SDS011;4148;47.974;7.824;2023-05-07T02:56:50;4.73;;;3.20;;
8213;SDS011;4148;47.974;7.824;2023-05-07T02:59:18;5.17;;;3.50;;
8213;SDS011;4148;47.974;7.824;2023-05-07T03:01:46;5.37;;;3.53;;
8213;SDS011;4148;47.974;7.824;2023-05-07T03:04:16;7.03;;;3.67;;
8213;SDS011;4148;47.974;7.824;2023-05-07T03:06:43;6.20;;;3.07;;
8213;SDS011;4148;47.974;7.824;2023-05-07T03:09:11;6.30;;;2.80;;
8213;SDS011;4148;47.974;7.824;2023-05-07T03:11:39;4.70;;;3.13;;
8213;SDS011;4148;47.974;7.824;2023-05-07T03:14:07;3.97;;;3.07;;
8213;SDS011;4148;47.974;7.824;2023-05-07T03:16:35;3.13;;;2.70;;
8213;SDS011;4148;47.974;7.824;2023-05-07T03:19:03;5.10;;;3.30;;
8213;SDS011;4148;47.974;7.824;2023-05-07T03:21:32;8.13;;;2.90;;
8213;SDS011;4148;47.974;7.824;2023-05-07T03:24:00;6.13;;;3.17;;
8213;SDS011;4148;47.974;7.824;2023-05-07T03:26:28;4.73;;;3.90;;
8213;SDS011;4148;47.974;7.824;2023-05-07T03:28:56;4.47;;;3.20;;
8213;SDS011;4148;47.974;7.824;2023-05-07T03:31:24;3.47;;;3.17;;
8213;SDS011;4148;47.974;7.824;2023-05-07T03:33:52;4.53;;;3.40;;
8213;SDS011;4148;47.974;7.824;2023-05-07T03:36:21;6.60;;;3.03;;
8213;SDS011;4148;47.974;7.824;2023-05-07T03:38:51;5.07;;;3.20;;
8213;SDS011;4148;47.974;7.824;2023-05-07T03:41:19;5.60;;;3.33;;
8213;SDS011;4148;47.974;7.824;2023-05-07T03:43:47;5.67;;;3.10;;
8213;SDS011;4148;47.974;7.824;2023-05-07T03:46:15;3.50;;;3.20;;
8213;SDS011;4148;47.974;7.824;2023-05-07T03:48:43;6.00;;;3.80;;
8213;SDS011;4148;47.974;7.824;2023-05-07T03:51:11;4.70;;;3.23;;
8213;SDS011;4148;47.974;7.824;2023-05-07T03:53:38;3.70;;;3.10;;
8213;SDS011;4148;47.974;7.824;2023-05-07T03:56:08;6.80;;;3.30;;
8213;SDS011;4148;47.974;7.824;2023-05-07T03:58:35;5.90;;;3.23;;
8213;SDS011;4148;47.974;7.824;2023-05-07T04:01:03;3.50;;;3.20;;
8213;SDS011;4148;47.974;7.824;2023-05-07T04:03:31;7.53;;;3.33;;
8213;SDS011;4148;47.974;7.824;2023-05-07T04:05:59;6.00;;;3.17;;
8213;SDS011;4148;47.974;7.824;2023-05-07T04:08:27;3.93;;;3.50;;
8213;SDS011;4148;47.974;7.824;2023-05-07T04:10:55;5.20;;;3.57;;
8213;SDS011;4148;47.974;7.824;2023-05-07T04:13:24;3.63;;;3.13;;
8213;SDS011;4148;47.974;7.824;2023-05-07T04:15:54;2.97;;;2.77;;
8213;SDS011;4148;47.974;7.824;2023-05-07T04:18:22;3.40;;;2.93;;
8213;SDS011;4148;47.974;7.824;2023-05-07T04:20:50;6.23;;;3.60;;
8213;SDS011;4148;47.974;7.824;2023-05-07T04:23:18;4.07;;;3.40;;
8213;SDS011;4148;47.974;7.824;2023-05-07T04:25:46;4.27;;;3.50;;
8213;SDS011;4148;47.974;7.824;2023-05-07T04:28:14;4.20;;;3.50;;
8213;SDS011;4148;47.974;7.824;2023-05-07T04:30:43;6.30;;;3.53;;
8213;SDS011;4148;47.974;7.824;2023-05-07T04:33:11;5.70;;;3.50;;
8213;SDS011;4148;47.974;7.824;2023-05-07T04:35:38;4.30;;;3.60;;
8213;SDS011;4148;47.974;7.824;2023-05-07T04:38:06;6.53;;;3.60;;
8213;SDS011;4148;47.974;7.824;2023-05-07T04:40:35;5.80;;;3.60;;
8213;SDS011;4148;47.974;7.824;2023-05-07T04:43:03;5.30;;;2.90;;
8213;SDS011;4148;47.974;7.824;2023-05-07T04:45:31;4.37;;;3.43;;
8213;SDS011;4148;47.974;7.824;2023-05-07T04:48:01;3.60;;;3.30;;
8213;SDS011;4148;47.974;7.824;2023-05-07T04:50:29;3.83;;;3.47;;
8213;SDS011;4148;47.974;7.824;2023-05-07T04:52:57;4.33;;;3.83;;
8213;SDS011;4148;47.974;7.824;2023-05-07T04:55:25;4.70;;;3.70;;
8213;SDS011;4148;47.974;7.824;2023-05-07T04:57:52;4.97;;;3.23;;
8213;SDS011;4148;47.974;7.824;2023-05-07T05:00:20;3.40;;;3.03;;
8213;SDS011;4148;47.974;7.824;2023-05-07T05:02:49;4.23;;;3.20;;
8213;SDS011;4148;47.974;7.824;2023-05-07T05:05:18;3.57;;;3.27;;
8213;SDS011;4148;47.974;7.824;2023-05-07T05:07:46;3.47;;;3.17;;
8213;SDS011;4148;47.974;7.824;2023-05-07T05:10:14;5.10;;;3.47;;
8213;SDS011;4148;47.974;7.824;2023-05-07T05:12:42;6.10;;;3.50;;
8213;SDS011;4148;47.974;7.824;2023-05-07T05:15:10;4.00;;;3.40;;
8213;SDS011;4148;47.974;7.824;2023-05-07T05:17:39;4.90;;;3.33;;
8213;SDS011;4148;47.974;7.824;2023-05-07T05:20:07;5.90;;;3.60;;
8213;SDS011;4148;47.974;7.824;2023-05-07T05:22:38;5.77;;;3.70;;
8213;SDS011;4148;47.974;7.824;2023-05-07T05:25:06;4.23;;;3.47;;
8213;SDS011;4148;47.974;7.824;2023-05-07T05:27:34;5.53;;;3.73;;
8213;SDS011;4148;47.974;7.824;2023-05-07T05:32:31;3.53;;;3.23;;
8213;SDS011;4148;47.974;7.824;2023-05-07T05:35:00;4.90;;;3.80;;
8213;SDS011;4148;47.974;7.824;2023-05-07T05:37:28;7.80;;;4.10;;
8213;SDS011;4148;47.974;7.824;2023-05-07T05:39:57;5.40;;;3.40;;
8213;SDS011;4148;47.974;7.824;2023-05-07T05:42:25;4.00;;;3.60;;
8213;SDS011;4148;47.974;7.824;2023-05-07T05:44:53;4.50;;;4.10;;
8213;SDS011;4148;47.974;7.824;2023-05-07T05:47:21;5.00;;;3.87;;
8213;SDS011;4148;47.974;7.824;2023-05-07T05:49:49;5.60;;;4.17;;
8213;SDS011;4148;47.974;7.824;2023-05-07T05:52:17;4.67;;;3.73;;
8213;SDS011;4148;47.974;7.824;2023-05-07T05:54:45;6.50;;;3.63;;
8213;SDS011;4148;47.974;7.824;2023-05-07T05:57:14;4.83;;;4.00;;
8213;SDS011;4148;47.974;7.824;2023-05-07T05:59:43;5.47;;;4.10;;
8213;SDS011;4148;47.974;7.824;2023-05-07T06:02:11;5.40;;;4.00;;
8213;SDS011;4148;47.974;7.824;2023-05-07T06:04:39;5.13;;;4.10;;
8213;SDS011;4148;47.974;7.824;2023-05-07T06:07:08;6.13;;;4.40;;
8213;SDS011;4148;47.974;7.824;2023-05-07T06:09:36;5.40;;;4.73;;
8213;SDS011;4148;47.974;7.824;2023-05-07T06:12:04;5.30;;;4.10;;
8213;SDS011;4148;47.974;7.824;2023-05-07T06:14:34;6.13;;;4.30;;
8213;SDS011;4148;47.974;7.824;2023-05-07T06:17:02;5.90;;;4.07;;
8213;SDS011;4148;47.974;7.824;2023-05-07T06:19:29;8.83;;;4.70;;
8213;SDS011;4148;47.974;7.824;2023-05-07T06:21:57;4.80;;;4.30;;
8213;SDS011;4148;47.974;7.824;2023-05-07T06:24:27;4.73;;;4.23;;
8213;SDS011;4148;47.974;7.824;2023-05-07T06:26:55;5.80;;;4.70;;
8213;SDS011;4148;47.974;7.824;2023-05-07T06:29:24;6.30;;;4.70;;
8213;SDS011;4148;47.974;7.824;2023-05-07T06:31:54;5.80;;;4.97;;
8213;SDS011;4148;47.974;7.824;2023-05-07T06:34:22;5.33;;;4.80;;
8213;SDS011;4148;47.974;7.824;2023-05-07T06:36:49;5.30;;;4.40;;
8213;SDS011;4148;47.974;7.824;2023-05-07T06:39:17;5.63;;;4.47;;
8213;SDS011;4148;47.974;7.824;2023-05-07T06:41:45;6.73;;;5.07;;
8213;SDS011;4148;47.974;7.824;2023-05-07T06:44:13;9.93;;;5.13;;
8213;SDS011;4148;47.974;7.824;2023-05-07T06:46:41;8.60;;;5.17;;
8213;SDS011;4148;47.974;7.824;2023-05-07T06:49:10;5.03;;;4.53;;
8213;SDS011;4148;47.974;7.824;2023-05-07T06:51:39;5.37;;;4.67;;
8213;SDS011;4148;47.974;7.824;2023-05-07T06:54:07;8.60;;;4.33;;
8213;SDS011;4148;47.974;7.824;2023-05-07T06:56:34;6.90;;;4.83;;
8213;SDS011;4148;47.974;7.824;2023-05-07T06:59:02;4.83;;;4.43;;
8213;SDS011;4148;47.974;7.824;2023-05-07T07:01:30;7.90;;;4.70;;
8213;SDS011;4148;47.974;7.824;2023-05-07T07:03:58;5.60;;;5.10;;
8213;SDS011;4148;47.974;7.824;2023-05-07T07:06:28;5.93;;;4.67;;
8213;SDS011;4148;47.974;7.824;2023-05-07T07:08:57;8.03;;;4.63;;
8213;SDS011;4148;47.974;7.824;2023-05-07T07:11:26;8.20;;;5.23;;
8213;SDS011;4148;47.974;7.824;2023-05-07T07:13:53;6.13;;;5.53;;
8213;SDS011;4148;47.974;7.824;2023-05-07T07:16:21;4.50;;;4.10;;
8213;SDS011;4148;47.974;7.824;2023-05-07T07:18:49;6.60;;;5.90;;
8213;SDS011;4148;47.974;7.824;2023-05-07T07:21:18;5.70;;;4.90;;
8213;SDS011;4148;47.974;7.824;2023-05-07T07:23:47;5.67;;;5.00;;
8213;SDS011;4148;47.974;7.824;2023-05-07T07:26:15;5.43;;;4.90;;
8213;SDS011;4148;47.974;7.824;2023-05-07T07:28:43;7.10;;;4.50;;
8213;SDS011;4148;47.974;7.824;2023-05-07T07:31:11;5.03;;;4.33;;
8213;SDS011;4148;47.974;7.824;2023-05-07T07:33:39;10.53;;;5.10;;
8213;SDS011;4148;47.974;7.824;2023-05-07T07:36:07;5.93;;;5.20;;
8213;SDS011;4148;47.974;7.824;2023-05-07T07:38:35;6.50;;;5.37;;
8213;SDS011;4148;47.974;7.824;2023-05-07T07:41:04;5.90;;;4.97;;
8213;SDS011;4148;47.974;7.824;2023-05-07T07:43:32;11.13;;;6.00;;
8213;SDS011;4148;47.974;7.824;2023-05-07T07:46:00;8.60;;;4.80;;
8213;SDS011;4148;47.974;7.824;2023-05-07T07:48:28;5.00;;;4.43;;
8213;SDS011;4148;47.974;7.824;2023-05-07T07:50:56;7.70;;;5.23;;
8213;SDS011;4148;47.974;7.824;2023-05-07T07:53:24;6.33;;;5.03;;
8213;SDS011;4148;47.974;7.824;2023-05-07T07:55:51;4.53;;;4.13;;
8213;SDS011;4148;47.974;7.824;2023-05-07T07:58:26;7.97;;;4.77;;
8213;SDS011;4148;47.974;7.824;2023-05-07T08:00:53;5.90;;;4.73;;
8213;SDS011;4148;47.974;7.824;2023-05-07T08:03:22;6.20;;;5.10;;
8213;SDS011;4148;47.974;7.824;2023-05-07T08:05:50;5.40;;;4.70;;
8213;SDS011;4148;47.974;7.824;2023-05-07T08:08:18;7.33;;;5.50;;
8213;SDS011;4148;47.974;7.824;2023-05-07T08:10:46;7.73;;;5.20;;
8213;SDS011;4148;47.974;7.824;2023-05-07T08:13:16;6.10;;;5.37;;
8213;SDS011;4148;47.974;7.824;2023-05-07T08:15:45;6.97;;;4.70;;
8213;SDS011;4148;47.974;7.824;2023-05-07T08:18:13;9.10;;;5.00;;
8213;SDS011;4148;47.974;7.824;2023-05-07T08:20:41;5.30;;;4.77;;
8213;SDS011;4148;47.974;7.824;2023-05-07T08:23:09;5.47;;;4.80;;
8213;SDS011;4148;47.974;7.824;2023-05-07T08:25:37;5.50;;;4.33;;
8213;SDS011;4148;47.974;7.824;2023-05-07T08:28:05;4.53;;;4.10;;
8213;SDS011;4148;47.974;7.824;2023-05-07T08:30:35;5.70;;;4.87;;
8213;SDS011;4148;47.974;7.824;2023-05-07T08:33:04;5.53;;;4.97;;
8213;SDS011;4148;47.974;7.824;2023-05-07T08:35:32;4.87;;;3.93;;
8213;SDS011;4148;47.974;7.824;2023-05-07T08:38:00;5.30;;;4.40;;
8213;SDS011;4148;47.974;7.824;2023-05-07T08:40:28;8.13;;;4.63;;
8213;SDS011;4148;47.974;7.824;2023-05-07T08:42:56;4.67;;;4.23;;
8213;SDS011;4148;47.974;7.824;2023-05-07T08:45:25;7.27;;;4.40;;
8213;SDS011;4148;47.974;7.824;2023-05-07T08:47:56;5.10;;;4.40;;
8213;SDS011;4148;47.974;7.824;2023-05-07T08:50:28;4.63;;;4.20;;
8213;SDS011;4148;47.974;7.824;2023-05-07T08:52:56;5.30;;;4.77;;
8213;SDS011;4148;47.974;7.824;2023-05-07T08:55:24;4.43;;;4.03;;
8213;SDS011;4148;47.974;7.824;2023-05-07T08:57:52;5.53;;;4.53;;
8213;SDS011;4148;47.974;7.824;2023-05-07T09:00:20;4.90;;;4.40;;
8213;SDS011;4148;47.974;7.824;2023-05-07T09:02:47;5.73;;;4.53;;
8213;SDS011;4148;47.974;7.824;2023-05-07T09:05:16;6.33;;;5.50;;
8213;SDS011;4148;47.974;7.824;2023-05-07T09:07:45;7.10;;;5.87;;
8213;SDS011;4148;47.974;7.824;2023-05-07T09:10:13;6.77;;;5.00;;
8213;SDS011;4148;47.974;7.824;2023-05-07T09:12:41;7.13;;;5.30;;
8213;SDS011;4148;47.974;7.824;2023-05-07T09:15:09;5.30;;;4.80;;
8213;SDS011;4148;47.974;7.824;2023-05-07T09:17:38;5.60;;;5.10;;
8213;SDS011;4148;47.974;7.824;2023-05-07T09:20:07;5.20;;;4.60;;
8213;SDS011;4148;47.974;7.824;2023-05-07T09:22:36;7.10;;;4.87;;
8213;SDS011;4148;47.974;7.824;2023-05-07T09:25:06;6.60;;;4.30;;
8213;SDS011;4148;47.974;7.824;2023-05-07T09:27:35;5.57;;;4.40;;
8213;SDS011;4148;47.974;7.824;2023-05-07T09:30:04;4.60;;;4.20;;
8213;SDS011;4148;47.974;7.824;2023-05-07T09:32:34;4.73;;;4.17;;
8213;SDS011;4148;47.974;7.824;2023-05-07T09:35:02;5.00;;;4.40;;
8213;SDS011;4148;47.974;7.824;2023-05-07T09:37:31;4.37;;;4.00;;
8213;SDS011;4148;47.974;7.824;2023-05-07T09:39:59;4.30;;;3.90;;
8213;SDS011;4148;47.974;7.824;2023-05-07T09:42:28;4.67;;;4.20;;
8213;SDS011;4148;47.974;7.824;2023-05-07T09:44:56;5.70;;;3.60;;
8213;SDS011;4148;47.974;7.824;2023-05-07T09:47:26;5.70;;;4.50;;
8213;SDS011;4148;47.974;7.824;2023-05-07T09:49:57;10.57;;;4.73;;
8213;SDS011;4148;47.974;7.824;2023-05-07T09:52:31;6.40;;;4.60;;
8213;SDS011;4148;47.974;7.824;2023-05-07T09:55:02;5.60;;;4.57;;
8213;SDS011;4148;47.974;7.824;2023-05-07T09:57:33;5.90;;;4.47;;
8213;SDS011;4148;47.974;7.824;2023-05-07T10:00:02;6.80;;;4.63;;
8213;SDS011;4148;47.974;7.824;2023-05-07T10:02:31;10.23;;;5.03;;
8213;SDS011;4148;47.974;7.824;2023-05-07T10:05:02;4.53;;;3.90;;
8213;SDS011;4148;47.974;7.824;2023-05-07T10:07:31;5.43;;;3.73;;
8213;SDS011;4148;47.974;7.824;2023-05-07T10:09:59;4.93;;;4.37;;
8213;SDS011;4148;47.974;7.824;2023-05-07T10:12:28;5.30;;;4.27;;
8213;SDS011;4148;47.974;7.824;2023-05-07T10:15:05;4.47;;;3.90;;
8213;SDS011;4148;47.974;7.824;2023-05-07T10:17:35;4.40;;;4.00;;
8213;SDS011;4148;47.974;7.824;2023-05-07T10:20:03;5.20;;;3.90;;
8213;SDS011;4148;47.974;7.824;2023-05-07T10:22:37;6.17;;;4.80;;
8213;SDS011;4148;47.974;7.824;2023-05-07T10:25:06;5.60;;;4.40;;
8213;SDS011;4148;47.974;7.824;2023-05-07T10:27:41;5.20;;;4.07;;
8213;SDS011;4148;47.974;7.824;2023-05-07T10:30:15;4.87;;;4.37;;
8213;SDS011;4148;47.974;7.824;2023-05-07T10:32:53;4.77;;;4.30;;
8213;SDS011;4148;47.974;7.824;2023-05-07T10:35:24;6.87;;;4.83;;
8213;SDS011;4148;47.974;7.824;2023-05-07T10:37:56;7.93;;;4.87;;
8213;SDS011;4148;47.974;7.824;2023-05-07T10:40:24;5.77;;;5.10;;
8213;SDS011;4148;47.974;7.824;2023-05-07T10:42:55;5.00;;;4.50;;
8213;SDS011;4148;47.974;7.824;2023-05-07T10:45:27;7.60;;;5.23;;
8213;SDS011;4148;47.974;7.824;2023-05-07T10:48:08;7.30;;;5.13;;
8213;SDS011;4148;47.974;7.824;2023-05-07T10:50:41;6.00;;;5.00;;
8213;SDS011;4148;47.974;7.824;2023-05-07T10:53:22;6.10;;;4.90;;
8213;SDS011;4148;47.974;7.824;2023-05-07T11:02:09;5.20;;;4.70;;
8213;SDS011;4148;47.974;7.824;2023-05-07T11:04:40;6.23;;;5.60;;
8213;SDS011;4148;47.974;7.824;2023-05-07T11:07:21;6.53;;;5.57;;
8213;SDS011;4148;47.974;7.824;2023-05-07T11:09:59;8.43;;;5.90;;
8213;SDS011;4148;47.974;7.824;2023-05-07T11:12:49;8.03;;;5.53;;
8213;SDS011;4148;47.974;7.824;2023-05-07T11:18:06;5.63;;;4.50;;
8213;SDS011;4148;47.974;7.824;2023-05-07T11:20:47;5.80;;;4.47;;
8213;SDS011;4148;47.974;7.824;2023-05-07T11:26:25;4.90;;;4.40;;
8213;SDS011;4148;47.974;7.824;2023-05-07T11:28:53;6.53;;;5.03;;
8213;SDS011;4148;47.974;7.824;2023-05-07T11:31:23;6.00;;;4.90;;
8213;SDS011;4148;47.974;7.824;2023-05-07T11:33:54;4.87;;;4.10;;
8213;SDS011;4148;47.974;7.824;2023-05-07T11:36:23;5.10;;;4.70;;
8213;SDS011;4148;47.974;7.824;2023-05-07T11:38:52;5.87;;;5.03;;
8213;SDS011;4148;47.974;7.824;2023-05-07T11:41:20;5.50;;;4.90;;
8213;SDS011;4148;47.974;7.824;2023-05-07T11:43:55;4.90;;;4.27;;
8213;SDS011;4148;47.974;7.824;2023-05-07T11:46:24;5.73;;;4.20;;
8213;SDS011;4148;47.974;7.824;2023-05-07T11:48:53;4.87;;;4.47;;
8213;SDS011;4148;47.974;7.824;2023-05-07T11:51:22;8.93;;;5.00;;
8213;SDS011;4148;47.974;7.824;2023-05-07T11:53:52;6.07;;;4.60;;
8213;SDS011;4148;47.974;7.824;2023-05-07T11:56:20;5.60;;;4.30;;
8213;SDS011;4148;47.974;7.824;2023-05-07T11:58:48;6.07;;;4.90;;
8213;SDS011;4148;47.974;7.824;2023-05-07T12:01:18;5.40;;;4.40;;
8213;SDS011;4148;47.974;7.824;2023-05-07T12:03:46;5.53;;;4.57;;
8213;SDS011;4148;47.974;7.824;2023-05-07T12:06:16;5.43;;;4.60;;
8213;SDS011;4148;47.974;7.824;2023-05-07T12:08:44;5.47;;;4.97;;
8213;SDS011;4148;47.974;7.824;2023-05-07T12:11:14;6.33;;;4.90;;
8213;SDS011;4148;47.974;7.824;2023-05-07T12:13:44;6.03;;;5.00;;
8213;SDS011;4148;47.974;7.824;2023-05-07T12:16:12;8.47;;;5.30;;
8213;SDS011;4148;47.974;7.824;2023-05-07T12:18:40;7.13;;;5.50;;
8213;SDS011;4148;47.974;7.824;2023-05-07T12:21:08;6.20;;;4.77;;
8213;SDS011;4148;47.974;7.824;2023-05-07T12:23:38;6.03;;;4.60;;
8213;SDS011;4148;47.974;7.824;2023-05-07T12:26:07;5.20;;;4.80;;
8213;SDS011;4148;47.974;7.824;2023-05-07T12:28:36;4.27;;;3.83;;
8213;SDS011;4148;47.974;7.824;2023-05-07T12:31:06;6.30;;;4.60;;
8213;SDS011;4148;47.974;7.824;2023-05-07T12:33:34;5.67;;;4.50;;
8213;SDS011;4148;47.974;7.824;2023-05-07T12:36:03;5.07;;;4.23;;
8213;SDS011;4148;47.974;7.824;2023-05-07T12:38:37;7.13;;;4.90;;
8213;SDS011;4148;47.974;7.824;2023-05-07T12:41:07;4.77;;;4.27;;
8213;SDS011;4148;47.974;7.824;2023-05-07T12:43:36;5.43;;;4.20;;
8213;SDS011;4148;47.974;7.824;2023-05-07T12:46:05;4.83;;;4.33;;
8213;SDS011;4148;47.974;7.824;2023-05-07T12:48:35;5.87;;;4.90;;
8213;SDS011;4148;47.974;7.824;2023-05-07T12:51:05;4.40;;;4.00;;
8213;SDS011;4148;47.974;7.824;2023-05-07T12:53:33;4.47;;;4.00;;
8213;SDS011;4148;47.974;7.824;2023-05-07T12:56:09;6.30;;;4.53;;
8213;SDS011;4148;47.974;7.824;2023-05-07T12:58:37;5.60;;;4.23;;
8213;SDS011;4148;47.974;7.824;2023-05-07T13:01:06;4.77;;;3.73;;
8213;SDS011;4148;47.974;7.824;2023-05-07T13:03:36;4.77;;;4.00;;
8213;SDS011;4148;47.974;7.824;2023-05-07T13:06:06;5.53;;;4.33;;
8213;SDS011;4148;47.974;7.824;2023-05-07T13:08:36;4.80;;;4.00;;
8213;SDS011;4148;47.974;7.824;2023-05-07T13:11:08;5.43;;;4.33;;
8213;SDS011;4148;47.974;7.824;2023-05-07T13:13:37;4.13;;;3.70;;
8213;SDS011;4148;47.974;7.824;2023-05-07T13:16:07;5.77;;;4.03;;
8213;SDS011;4148;47.974;7.824;2023-05-07T13:18:37;5.03;;;3.87;;
8213;SDS011;4148;47.974;7.824;2023-05-07T13:21:06;5.60;;;4.00;;
8213;SDS011;4148;47.974;7.824;2023-05-07T13:23:34;7.23;;;4.70;;
8213;SDS011;4148;47.974;7.824;2023-05-07T13:26:04;8.13;;;4.60;;
8213;SDS011;4148;47.974;7.824;2023-05-07T13:28:52;4.97;;;4.57;;
8213;SDS011;4148;47.974;7.824;2023-05-07T13:31:20;7.13;;;5.00;;
8213;SDS011;4148;47.974;7.824;2023-05-07T13:33:48;7.33;;;5.47;;
8213;SDS011;4148;47.974;7.824;2023-05-07T13:36:16;5.60;;;4.63;;
8213;SDS011;4148;47.974;7.824;2023-05-07T13:38:44;5.43;;;4.90;;
8213;SDS011;4148;47.974;7.824;2023-05-07T13:41:12;6.50;;;5.13;;
8213;SDS011;4148;47.974;7.824;2023-05-07T13:43:40;5.97;;;5.33;;
8213;SDS011;4148;47.974;7.824;2023-05-07T13:46:10;5.90;;;5.30;;
8213;SDS011;4148;47.974;7.824;2023-05-07T13:48:38;6.20;;;5.60;;
8213;SDS011;4148;47.974;7.824;2023-05-07T13:51:05;7.47;;;5.27;;
8213;SDS011;4148;47.974;7.824;2023-05-07T13:53:33;5.93;;;4.90;;
8213;SDS011;4148;47.974;7.824;2023-05-07T13:56:01;5.53;;;5.03;;
8213;SDS011;4148;47.974;7.824;2023-05-07T13:58:30;6.00;;;5.20;;
8213;SDS011;4148;47.974;7.824;2023-05-07T14:00:59;5.73;;;5.13;;
8213;SDS011;4148;47.974;7.824;2023-05-07T14:03:28;5.57;;;4.97;;
8213;SDS011;4148;47.974;7.824;2023-05-07T14:05:58;6.93;;;4.90;;
8213;SDS011;4148;47.974;7.824;2023-05-07T14:08:26;5.27;;;4.50;;
8213;SDS011;4148;47.974;7.824;2023-05-07T14:10:57;4.37;;;4.00;;
8213;SDS011;4148;47.974;7.824;2023-05-07T14:13:24;8.60;;;4.33;;
8213;SDS011;4148;47.974;7.824;2023-05-07T14:15:53;4.73;;;4.33;;
8213;SDS011;4148;47.974;7.824;2023-05-07T14:18:21;4.93;;;4.37;;
8213;SDS011;4148;47.974;7.824;2023-05-07T14:20:50;4.67;;;3.73;;
8213;SDS011;4148;47.974;7.824;2023-05-07T14:23:18;4.80;;;4.37;;
8213;SDS011;4148;47.974;7.824;2023-05-07T14:25:52;5.57;;;4.03;;
8213;SDS011;4148;47.974;7.824;2023-05-07T14:28:20;6.30;;;3.87;;
8213;SDS011;4148;47.974;7.824;2023-05-07T14:30:48;5.70;;;4.73;;
8213;SDS011;4148;47.974;7.824;2023-05-07T14:33:16;5.00;;;3.87;;
8213;SDS011;4148;47.974;7.824;2023-05-07T14:35:44;5.47;;;3.60;;
8213;SDS011;4148;47.974;7.824;2023-05-07T14:38:16;5.03;;;3.13;;
8213;SDS011;4148;47.974;7.824;2023-05-07T14:40:44;4.43;;;3.50;;
8213;SDS011;4148;47.974;7.824;2023-05-07T14:43:12;4.53;;;4.13;;
8213;SDS011;4148;47.974;7.824;2023-05-07T14:45:40;4.33;;;3.90;;
8213;SDS011;4148;47.974;7.824;2023-05-07T14:48:08;4.53;;;3.67;;
8213;SDS011;4148;47.974;7.824;2023-05-07T14:50:41;4.43;;;4.03;;
8213;SDS011;4148;47.974;7.824;2023-05-07T14:53:09;3.30;;;3.00;;
8213;SDS011;4148;47.974;7.824;2023-05-07T14:55:38;3.43;;;2.80;;
8213;SDS011;4148;47.974;7.824;2023-05-07T14:58:06;4.30;;;3.30;;
8213;SDS011;4148;47.974;7.824;2023-05-07T15:00:34;2.77;;;2.57;;
8213;SDS011;4148;47.974;7.824;2023-05-07T15:03:04;7.30;;;2.60;;
8213;SDS011;4148;47.974;7.824;2023-05-07T15:05:34;4.10;;;2.27;;
8213;SDS011;4148;47.974;7.824;2023-05-07T15:08:02;2.20;;;2.00;;
8213;SDS011;4148;47.974;7.824;2023-05-07T15:10:31;2.10;;;1.90;;
8213;SDS011;4148;47.974;7.824;2023-05-07T15:13:07;2.13;;;1.80;;
8213;SDS011;4148;47.974;7.824;2023-05-07T15:15:39;2.50;;;2.10;;
8213;SDS011;4148;47.974;7.824;2023-05-07T15:18:09;3.30;;;2.00;;
8213;SDS011;4148;47.974;7.824;2023-05-07T15:20:37;4.67;;;2.13;;
8213;SDS011;4148;47.974;7.824;2023-05-07T15:23:05;2.70;;;2.20;;
8213;SDS011;4148;47.974;7.824;2023-05-07T15:25:36;2.80;;;2.00;;
8213;SDS011;4148;47.974;7.824;2023-05-07T15:28:04;2.13;;;1.90;;
8213;SDS011;4148;47.974;7.824;2023-05-07T15:30:33;2.30;;;2.00;;
8213;SDS011;4148;47.974;7.824;2023-05-07T15:33:01;3.00;;;2.37;;
8213;SDS011;4148;47.974;7.824;2023-05-07T15:35:29;2.53;;;1.93;;
8213;SDS011;4148;47.974;7.824;2023-05-07T15:37:57;2.50;;;2.30;;
8213;SDS011;4148;47.974;7.824;2023-05-07T15:40:25;3.43;;;2.10;;